sensor_id;sensor_type;location;lat;lon;timestamp;temperature;humidity
28725;DHT22;43472;48.980;9.646;2023-03-01T00:01:22;1.10;99.90
28725;DHT22;43472;48.980;9.646;2023-03-01T00:06:25;1.00;99.90
28725;DHT22;43472;48.980;9.646;2023-03-01T00:11:31;1.00;99.90
28725;DHT22;43472;48.980;9.646;2023-03-01T00:16:41;0.90;99.90
28725;DHT22;43472;48.980;9.646;2023-03-01T00:21:43;1.00;99.90
28725;DHT22;43472;48.980;9.646;2023-03-01T00:26:48;0.90;99.90
28725;DHT22;43472;48.980;9.646;2023-03-01T00:31:54;1.00;99.90
28725;DHT22;43472;48.980;9.646;2023-03-01T00:36:56;1.00;99.90
28725;DHT22;43472;48.980;9.646;2023-03-01T00:42:08;1.00;99.90
28725;DHT22;43472;48.980;9.646;2023-03-01T00:47:11;1.00;99.90
28725;DHT22;43472;48.980;9.646;2023-03-01T00:52:13;0.90;99.90
28725;DHT22;43472;48.980;9.646;2023-03-01T00:57:15;1.00;99.90
28725;DHT22;43472;48.980;9.646;2023-03-01T01:02:18;0.80;99.90
28725;DHT22;43472;48.980;9.646;2023-03-01T01:07:20;0.80;99.90
28725;DHT22;43472;48.980;9.646;2023-03-01T01:12:22;0.80;99.90
28725;DHT22;43472;48.980;9.646;2023-03-01T01:17:24;1.00;99.90
28725;DHT22;43472;48.980;9.646;2023-03-01T01:22:35;1.00;99.90
28725;DHT22;43472;48.980;9.646;2023-03-01T01:27:37;1.00;99.90
28725;DHT22;43472;48.980;9.646;2023-03-01T01:32:39;1.10;99.90
28725;DHT22;43472;48.980;9.646;2023-03-01T01:37:41;1.10;99.90
28725;DHT22;43472;48.980;9.646;2023-03-01T01:42:43;1.00;99.90
28725;DHT22;43472;48.980;9.646;2023-03-01T01:47:45;1.10;99.90
28725;DHT22;43472;48.980;9.646;2023-03-01T01:52:51;1.20;99.90
28725;DHT22;43472;48.980;9.646;2023-03-01T01:57:58;1.40;99.90
28725;DHT22;43472;48.980;9.646;2023-03-01T02:03:04;1.30;99.90
28725;DHT22;43472;48.980;9.646;2023-03-01T02:08:08;1.50;99.90
28725;DHT22;43472;48.980;9.646;2023-03-01T02:13:12;1.10;99.90
28725;DHT22;43472;48.980;9.646;2023-03-01T02:18:17;1.20;99.90
28725;DHT22;43472;48.980;9.646;2023-03-01T02:23:20;-1.20;99.90
28725;DHT22;43472;48.980;9.646;2023-03-01T02:28:33;1.30;99.90
28725;DHT22;43472;48.980;9.646;2023-03-01T02:33:37;1.40;99.90
28725;DHT22;43472;48.980;9.646;2023-03-01T02:38:43;1.40;99.90
28725;DHT22;43472;48.980;9.646;2023-03-01T02:43:45;1.30;99.90
28725;DHT22;43472;48.980;9.646;2023-03-01T02:48:53;1.50;99.90
28725;DHT22;43472;48.980;9.646;2023-03-01T02:54:05;1.60;99.90
28725;DHT22;43472;48.980;9.646;2023-03-01T02:59:10;1.80;99.90
28725;DHT22;43472;48.980;9.646;2023-03-01T03:04:15;1.80;99.90
28725;DHT22;43472;48.980;9.646;2023-03-01T03:09:18;1.80;99.90
28725;DHT22;43472;48.980;9.646;2023-03-01T03:14:21;1.80;99.90
28725;DHT22;43472;48.980;9.646;2023-03-01T03:19:22;1.90;99.90
28725;DHT22;43472;48.980;9.646;2023-03-01T03:24:25;2.00;99.90
28725;DHT22;43472;48.980;9.646;2023-03-01T03:29:26;2.00;99.90
28725;DHT22;43472;48.980;9.646;2023-03-01T03:34:28;2.10;99.90
28725;DHT22;43472;48.980;9.646;2023-03-01T03:39:30;2.20;99.90
28725;DHT22;43472;48.980;9.646;2023-03-01T03:44:36;2.10;99.90
28725;DHT22;43472;48.980;9.646;2023-03-01T03:49:39;2.20;99.90
28725;DHT22;43472;48.980;9.646;2023-03-01T03:54:41;2.10;99.90
28725;DHT22;43472;48.980;9.646;2023-03-01T03:59:42;2.20;99.90
28725;DHT22;43472;48.980;9.646;2023-03-01T04:04:44;2.20;99.90
28725;DHT22;43472;48.980;9.646;2023-03-01T04:09:46;2.20;99.90
28725;DHT22;43472;48.980;9.646;2023-03-01T04:14:48;2.20;99.90
28725;DHT22;43472;48.980;9.646;2023-03-01T04:19:50;2.20;99.90
28725;DHT22;43472;48.980;9.646;2023-03-01T04:24:52;2.10;99.90
28725;DHT22;43472;48.980;9.646;2023-03-01T04:29:54;2.10;99.90
28725;DHT22;43472;48.980;9.646;2023-03-01T04:34:56;2.00;99.90
28725;DHT22;43472;48.980;9.646;2023-03-01T04:39:58;2.20;99.90
28725;DHT22;43472;48.980;9.646;2023-03-01T04:45:00;2.30;99.90
28725;DHT22;43472;48.980;9.646;2023-03-01T04:50:02;2.20;99.90
28725;DHT22;43472;48.980;9.646;2023-03-01T04:55:05;2.30;99.90
28725;DHT22;43472;48.980;9.646;2023-03-01T05:00:10;2.30;99.90
28725;DHT22;43472;48.980;9.646;2023-03-01T05:05:26;2.40;99.90
28725;DHT22;43472;48.980;9.646;2023-03-01T05:10:30;2.20;99.90
28725;DHT22;43472;48.980;9.646;2023-03-01T05:15:32;2.10;99.90
28725;DHT22;43472;48.980;9.646;2023-03-01T05:20:34;2.20;99.90
28725;DHT22;43472;48.980;9.646;2023-03-01T05:25:37;2.20;99.90
28725;DHT22;43472;48.980;9.646;2023-03-01T05:30:41;2.60;99.90
28725;DHT22;43472;48.980;9.646;2023-03-01T05:35:44;2.20;99.90
28725;DHT22;43472;48.980;9.646;2023-03-01T05:40:48;2.50;99.90
28725;DHT22;43472;48.980;9.646;2023-03-01T05:45:50;2.40;99.90
28725;DHT22;43472;48.980;9.646;2023-03-01T05:50:52;2.50;99.90
28725;DHT22;43472;48.980;9.646;2023-03-01T05:55:53;2.20;99.90
28725;DHT22;43472;48.980;9.646;2023-03-01T06:00:55;2.10;99.90
28725;DHT22;43472;48.980;9.646;2023-03-01T06:05:58;2.00;99.90
28725;DHT22;43472;48.980;9.646;2023-03-01T06:11:00;1.80;99.90
28725;DHT22;43472;48.980;9.646;2023-03-01T06:16:06;1.70;99.90
28725;DHT22;43472;48.980;9.646;2023-03-01T06:21:09;1.50;99.90
28725;DHT22;43472;48.980;9.646;2023-03-01T06:26:11;1.70;99.90
28725;DHT22;43472;48.980;9.646;2023-03-01T06:31:13;1.60;99.90
28725;DHT22;43472;48.980;9.646;2023-03-01T06:36:14;1.70;99.90
28725;DHT22;43472;48.980;9.646;2023-03-01T06:41:20;1.80;99.90
28725;DHT22;43472;48.980;9.646;2023-03-01T06:46:22;1.80;99.90
28725;DHT22;43472;48.980;9.646;2023-03-01T06:51:26;1.90;99.90
28725;DHT22;43472;48.980;9.646;2023-03-01T06:56:27;1.90;99.90
28725;DHT22;43472;48.980;9.646;2023-03-01T07:01:30;2.00;99.90
28725;DHT22;43472;48.980;9.646;2023-03-01T07:06:33;2.00;99.90
28725;DHT22;43472;48.980;9.646;2023-03-01T07:11:36;2.10;99.90
28725;DHT22;43472;48.980;9.646;2023-03-01T07:16:37;0.60;99.90
28725;DHT22;43472;48.980;9.646;2023-03-01T07:21:39;2.30;99.90
28725;DHT22;43472;48.980;9.646;2023-03-01T07:26:41;2.40;99.90
28725;DHT22;43472;48.980;9.646;2023-03-01T07:31:44;2.40;99.90
28725;DHT22;43472;48.980;9.646;2023-03-01T07:36:46;2.30;99.90
28725;DHT22;43472;48.980;9.646;2023-03-01T07:41:51;2.60;99.90
28725;DHT22;43472;48.980;9.646;2023-03-01T07:46:53;2.50;99.90
28725;DHT22;43472;48.980;9.646;2023-03-01T07:51:58;2.80;99.90
28725;DHT22;43472;48.980;9.646;2023-03-01T07:57:00;2.80;99.90
28725;DHT22;43472;48.980;9.646;2023-03-01T08:02:02;3.10;99.90
28725;DHT22;43472;48.980;9.646;2023-03-01T08:07:05;3.10;99.90
28725;DHT22;43472;48.980;9.646;2023-03-01T08:12:07;3.10;99.90
28725;DHT22;43472;48.980;9.646;2023-03-01T08:17:09;3.60;99.70
28725;DHT22;43472;48.980;9.646;2023-03-01T08:22:11;3.80;99.40
28725;DHT22;43472;48.980;9.646;2023-03-01T08:27:15;3.60;99.90
28725;DHT22;43472;48.980;9.646;2023-03-01T08:32:17;4.10;99.90
28725;DHT22;43472;48.980;9.646;2023-03-01T08:37:19;4.50;99.20
28725;DHT22;43472;48.980;9.646;2023-03-01T08:42:21;4.50;98.50
28725;DHT22;43472;48.980;9.646;2023-03-01T08:47:23;5.00;98.00
28725;DHT22;43472;48.980;9.646;2023-03-01T08:52:25;5.20;97.70
28725;DHT22;43472;48.980;9.646;2023-03-01T08:57:27;5.40;98.00
28725;DHT22;43472;48.980;9.646;2023-03-01T09:02:29;5.40;98.50
28725;DHT22;43472;48.980;9.646;2023-03-01T09:07:31;5.90;97.30
28725;DHT22;43472;48.980;9.646;2023-03-01T09:12:33;7.50;96.40
28725;DHT22;43472;48.980;9.646;2023-03-01T09:17:35;6.90;96.70
28725;DHT22;43472;48.980;9.646;2023-03-01T09:22:37;6.80;96.00
28725;DHT22;43472;48.980;9.646;2023-03-01T09:27:39;7.00;94.90
28725;DHT22;43472;48.980;9.646;2023-03-01T09:32:41;7.00;95.60
28725;DHT22;43472;48.980;9.646;2023-03-01T09:37:44;7.20;94.90
28725;DHT22;43472;48.980;9.646;2023-03-01T09:43:08;7.50;94.00
28725;DHT22;43472;48.980;9.646;2023-03-01T09:48:21;7.30;94.20
28725;DHT22;43472;48.980;9.646;2023-03-01T09:53:33;8.00;94.10
28725;DHT22;43472;48.980;9.646;2023-03-01T10:04:03;8.00;93.40
28725;DHT22;43472;48.980;9.646;2023-03-01T10:09:16;8.30;93.90
28725;DHT22;43472;48.980;9.646;2023-03-01T10:25:42;9.00;92.90
28725;DHT22;43472;48.980;9.646;2023-03-01T10:30:46;8.50;92.60
28725;DHT22;43472;48.980;9.646;2023-03-01T10:35:48;8.90;92.10
28725;DHT22;43472;48.980;9.646;2023-03-01T10:40:59;9.10;92.30
28725;DHT22;43472;48.980;9.646;2023-03-01T10:46:08;8.90;91.80
28725;DHT22;43472;48.980;9.646;2023-03-01T10:51:23;8.60;92.50
28725;DHT22;43472;48.980;9.646;2023-03-01T10:56:25;8.80;92.30
28725;DHT22;43472;48.980;9.646;2023-03-01T11:01:33;9.10;92.00
28725;DHT22;43472;48.980;9.646;2023-03-01T11:06:38;9.70;90.60
28725;DHT22;43472;48.980;9.646;2023-03-01T11:11:40;10.10;90.50
28725;DHT22;43472;48.980;9.646;2023-03-01T11:16:45;10.80;87.20
28725;DHT22;43472;48.980;9.646;2023-03-01T11:21:55;11.60;84.10
28725;DHT22;43472;48.980;9.646;2023-03-01T11:27:02;11.50;84.40
28725;DHT22;43472;48.980;9.646;2023-03-01T11:32:08;11.90;85.30
28725;DHT22;43472;48.980;9.646;2023-03-01T11:37:35;12.40;83.30
28725;DHT22;43472;48.980;9.646;2023-03-01T11:43:12;13.40;81.60
28725;DHT22;43472;48.980;9.646;2023-03-01T11:49:32;13.30;79.70
28725;DHT22;43472;48.980;9.646;2023-03-01T11:54:09;13.40;78.70
28725;DHT22;43472;48.980;9.646;2023-03-01T12:05:01;13.90;76.30
28725;DHT22;43472;48.980;9.646;2023-03-01T12:10:25;14.10;74.30
28725;DHT22;43472;48.980;9.646;2023-03-01T12:21:04;14.90;72.10
28725;DHT22;43472;48.980;9.646;2023-03-01T12:26:16;14.50;72.10
28725;DHT22;43472;48.980;9.646;2023-03-01T12:42:10;14.40;71.10
28725;DHT22;43472;48.980;9.646;2023-03-01T12:47:42;14.70;71.60
28725;DHT22;43472;48.980;9.646;2023-03-01T12:52:51;14.30;73.00
28725;DHT22;43472;48.980;9.646;2023-03-01T13:19:26;13.50;75.70
28725;DHT22;43472;48.980;9.646;2023-03-01T13:24:38;14.20;73.10
28725;DHT22;43472;48.980;9.646;2023-03-01T13:34:48;15.50;72.20
28725;DHT22;43472;48.980;9.646;2023-03-01T13:39:51;15.90;70.00
28725;DHT22;43472;48.980;9.646;2023-03-01T13:44:53;17.50;67.10
28725;DHT22;43472;48.980;9.646;2023-03-01T13:50:02;17.40;66.50
28725;DHT22;43472;48.980;9.646;2023-03-01T14:00:34;18.90;62.70
28725;DHT22;43472;48.980;9.646;2023-03-01T14:05:37;17.80;61.70
28725;DHT22;43472;48.980;9.646;2023-03-01T14:16:53;17.70;62.90
28725;DHT22;43472;48.980;9.646;2023-03-01T14:22:28;17.10;62.10
28725;DHT22;43472;48.980;9.646;2023-03-01T14:27:39;16.90;63.10
28725;DHT22;43472;48.980;9.646;2023-03-01T14:32:55;18.30;61.50
28725;DHT22;43472;48.980;9.646;2023-03-01T14:37:58;20.60;57.40
28725;DHT22;43472;48.980;9.646;2023-03-01T14:43:04;22.40;54.40
28725;DHT22;43472;48.980;9.646;2023-03-01T14:48:11;21.40;54.40
28725;DHT22;43472;48.980;9.646;2023-03-01T14:53:23;21.40;53.10
28725;DHT22;43472;48.980;9.646;2023-03-01T14:58:26;19.30;55.00
28725;DHT22;43472;48.980;9.646;2023-03-01T15:03:37;17.30;58.00
28725;DHT22;43472;48.980;9.646;2023-03-01T15:08:46;15.00;63.00
28725;DHT22;43472;48.980;9.646;2023-03-01T15:13:48;14.40;65.30
28725;DHT22;43472;48.980;9.646;2023-03-01T15:18:56;14.20;65.30
28725;DHT22;43472;48.980;9.646;2023-03-01T15:29:24;12.70;69.90
28725;DHT22;43472;48.980;9.646;2023-03-01T15:34:37;11.90;71.50
28725;DHT22;43472;48.980;9.646;2023-03-01T15:39:42;11.30;73.80
28725;DHT22;43472;48.980;9.646;2023-03-01T15:44:45;10.90;74.50
28725;DHT22;43472;48.980;9.646;2023-03-01T15:49:47;10.80;75.00
28725;DHT22;43472;48.980;9.646;2023-03-01T15:55:01;11.60;74.30
28725;DHT22;43472;48.980;9.646;2023-03-01T16:00:04;10.70;75.50
28725;DHT22;43472;48.980;9.646;2023-03-01T16:05:25;10.70;75.90
28725;DHT22;43472;48.980;9.646;2023-03-01T16:10:28;10.70;76.10
28725;DHT22;43472;48.980;9.646;2023-03-01T16:15:32;10.30;76.60
28725;DHT22;43472;48.980;9.646;2023-03-01T16:20:39;10.50;77.00
28725;DHT22;43472;48.980;9.646;2023-03-01T16:25:41;10.30;76.90
28725;DHT22;43472;48.980;9.646;2023-03-01T16:30:46;10.10;78.30
28725;DHT22;43472;48.980;9.646;2023-03-01T16:35:50;10.00;79.40
28725;DHT22;43472;48.980;9.646;2023-03-01T16:40:52;9.40;80.20
28725;DHT22;43472;48.980;9.646;2023-03-01T16:45:54;9.40;81.00
28725;DHT22;43472;48.980;9.646;2023-03-01T16:50:57;9.20;82.10
28725;DHT22;43472;48.980;9.646;2023-03-01T16:56:00;8.70;83.00
28725;DHT22;43472;48.980;9.646;2023-03-01T17:06:14;8.60;83.40
28725;DHT22;43472;48.980;9.646;2023-03-01T17:11:19;8.40;84.80
28725;DHT22;43472;48.980;9.646;2023-03-01T17:16:21;8.20;86.20
28725;DHT22;43472;48.980;9.646;2023-03-01T17:21:25;8.00;88.10
28725;DHT22;43472;48.980;9.646;2023-03-01T17:26:27;8.00;88.00
28725;DHT22;43472;48.980;9.646;2023-03-01T17:31:33;7.70;90.40
28725;DHT22;43472;48.980;9.646;2023-03-01T17:36:35;7.60;90.60
28725;DHT22;43472;48.980;9.646;2023-03-01T17:41:44;7.50;90.80
28725;DHT22;43472;48.980;9.646;2023-03-01T17:46:46;7.50;90.90
28725;DHT22;43472;48.980;9.646;2023-03-01T17:51:48;7.20;91.10
28725;DHT22;43472;48.980;9.646;2023-03-01T17:56:50;7.00;91.30
28725;DHT22;43472;48.980;9.646;2023-03-01T18:01:52;6.80;92.10
28725;DHT22;43472;48.980;9.646;2023-03-01T18:06:54;6.80;92.40
28725;DHT22;43472;48.980;9.646;2023-03-01T18:11:56;6.40;92.70
28725;DHT22;43472;48.980;9.646;2023-03-01T18:17:00;6.40;93.00
28725;DHT22;43472;48.980;9.646;2023-03-01T18:22:05;6.50;93.30
28725;DHT22;43472;48.980;9.646;2023-03-01T18:27:07;6.10;93.50
28725;DHT22;43472;48.980;9.646;2023-03-01T18:32:09;5.90;93.60
28725;DHT22;43472;48.980;9.646;2023-03-01T18:37:11;5.90;94.00
28725;DHT22;43472;48.980;9.646;2023-03-01T18:42:13;5.80;94.50
28725;DHT22;43472;48.980;9.646;2023-03-01T18:47:17;5.70;94.50
28725;DHT22;43472;48.980;9.646;2023-03-01T18:52:19;5.60;94.70
28725;DHT22;43472;48.980;9.646;2023-03-01T18:57:20;5.60;94.90
28725;DHT22;43472;48.980;9.646;2023-03-01T19:02:22;5.50;95.10
28725;DHT22;43472;48.980;9.646;2023-03-01T19:07:24;5.30;95.40
28725;DHT22;43472;48.980;9.646;2023-03-01T19:12:26;5.10;95.70
28725;DHT22;43472;48.980;9.646;2023-03-01T19:17:29;4.90;95.90
28725;DHT22;43472;48.980;9.646;2023-03-01T19:22:31;4.90;96.00
28725;DHT22;43472;48.980;9.646;2023-03-01T19:27:33;4.90;96.20
28725;DHT22;43472;48.980;9.646;2023-03-01T19:32:36;4.80;96.40
28725;DHT22;43472;48.980;9.646;2023-03-01T19:37:37;4.60;96.70
28725;DHT22;43472;48.980;9.646;2023-03-01T19:42:39;4.60;97.00
28725;DHT22;43472;48.980;9.646;2023-03-01T19:47:45;4.60;96.90
28725;DHT22;43472;48.980;9.646;2023-03-01T19:52:48;4.50;97.30
28725;DHT22;43472;48.980;9.646;2023-03-01T19:57:50;4.40;97.20
28725;DHT22;43472;48.980;9.646;2023-03-01T20:02:52;4.20;97.50
28725;DHT22;43472;48.980;9.646;2023-03-01T20:07:54;4.20;97.80
28725;DHT22;43472;48.980;9.646;2023-03-01T20:12:58;4.10;97.90
28725;DHT22;43472;48.980;9.646;2023-03-01T20:18:02;3.90;98.40
28725;DHT22;43472;48.980;9.646;2023-03-01T20:23:04;4.00;98.40
28725;DHT22;43472;48.980;9.646;2023-03-01T20:28:07;4.10;98.50
28725;DHT22;43472;48.980;9.646;2023-03-01T20:33:09;4.10;98.80
28725;DHT22;43472;48.980;9.646;2023-03-01T20:38:12;4.10;98.80
28725;DHT22;43472;48.980;9.646;2023-03-01T20:43:13;4.10;99.20
28725;DHT22;43472;48.980;9.646;2023-03-01T20:48:16;4.00;98.90
28725;DHT22;43472;48.980;9.646;2023-03-01T20:53:18;4.00;99.50
28725;DHT22;43472;48.980;9.646;2023-03-01T20:58:20;4.20;99.50
28725;DHT22;43472;48.980;9.646;2023-03-01T21:03:22;4.00;99.30
28725;DHT22;43472;48.980;9.646;2023-03-01T21:08:24;3.90;99.50
28725;DHT22;43472;48.980;9.646;2023-03-01T21:13:27;4.00;99.80
28725;DHT22;43472;48.980;9.646;2023-03-01T21:18:30;4.00;99.90
28725;DHT22;43472;48.980;9.646;2023-03-01T21:23:34;3.70;99.90
28725;DHT22;43472;48.980;9.646;2023-03-01T21:28:37;3.90;99.90
28725;DHT22;43472;48.980;9.646;2023-03-01T21:33:43;3.90;99.90
28725;DHT22;43472;48.980;9.646;2023-03-01T21:38:47;3.90;99.90
28725;DHT22;43472;48.980;9.646;2023-03-01T21:43:51;4.30;99.90
28725;DHT22;43472;48.980;9.646;2023-03-01T21:48:54;4.20;99.90
28725;DHT22;43472;48.980;9.646;2023-03-01T21:53:58;4.40;99.90
28725;DHT22;43472;48.980;9.646;2023-03-01T21:59:01;4.30;99.90
28725;DHT22;43472;48.980;9.646;2023-03-01T22:04:04;4.30;99.90
28725;DHT22;43472;48.980;9.646;2023-03-01T22:09:18;4.40;99.70
28725;DHT22;43472;48.980;9.646;2023-03-01T22:14:20;4.50;99.90
28725;DHT22;43472;48.980;9.646;2023-03-01T22:19:23;4.40;99.90
28725;DHT22;43472;48.980;9.646;2023-03-01T22:29:29;4.40;99.90
28725;DHT22;43472;48.980;9.646;2023-03-01T22:34:31;4.30;99.90
28725;DHT22;43472;48.980;9.646;2023-03-01T22:39:33;4.30;99.90
28725;DHT22;43472;48.980;9.646;2023-03-01T22:44:35;4.30;99.90
28725;DHT22;43472;48.980;9.646;2023-03-01T22:49:37;4.20;99.90
28725;DHT22;43472;48.980;9.646;2023-03-01T22:54:38;4.20;99.90
28725;DHT22;43472;48.980;9.646;2023-03-01T22:59:40;4.10;99.90
28725;DHT22;43472;48.980;9.646;2023-03-01T23:04:42;4.00;99.90
28725;DHT22;43472;48.980;9.646;2023-03-01T23:09:45;4.00;99.90
28725;DHT22;43472;48.980;9.646;2023-03-01T23:14:46;4.00;99.90
28725;DHT22;43472;48.980;9.646;2023-03-01T23:19:48;4.00;99.90
28725;DHT22;43472;48.980;9.646;2023-03-01T23:24:52;3.80;99.90
28725;DHT22;43472;48.980;9.646;2023-03-01T23:29:53;3.80;99.90
28725;DHT22;43472;48.980;9.646;2023-03-01T23:34:55;3.70;99.90
28725;DHT22;43472;48.980;9.646;2023-03-01T23:39:57;3.70;99.90
28725;DHT22;43472;48.980;9.646;2023-03-01T23:45:00;3.60;99.90
28725;DHT22;43472;48.980;9.646;2023-03-01T23:50:02;3.60;99.90
28725;DHT22;43472;48.980;9.646;2023-03-01T23:55:05;3.50;99.90
